الصفحة الرئيسية
METAR-TAF:

METAR-TAF

مطار :

Ceduna, أستراليا

دائرة عرض: 32-07-50S, خط طول: 133-42-35E, ارتفاع: 23 متر

مراقبة الطقس الحالي

تاريخ ووقت الإصدار 1ساعة و 18 دقيقة قبل الساعة 19:00UTC
ريح 4 عقدة من الشمال الشرقي
درجة الحرارة 5°درجة مئوية
الرطوبة 93%
ضغط 1027 hPa

METAR: YCDU 171900Z AUTO 05004KT //// // ////// 05/04 Q1027

زمن: 05:48 (20:18 UTC)


TAF: مفقودة

أرصاد الطقس والتوقعات من أكثر من 4000 مطار (تقارير الطقس للمطار METAR والتنبؤ بالطقس بالمطارTAF).

المحطات المتاحة هي النقط الصفراء والحمراء على الخريطة.

حرك المؤشر فوق النقطة لمعرفة اسم المحطة.

ثم انقر لمعرفة أرصاد وتوقعات الطقس.

لتغيير الخارطة: اضغط على الأزرار الخضراء مع رمز الصليب الأسود للتكبير. على الزر الأخضر مع شرطة للتصغير، أو على الأسهم الخضراء للخرائط المجاورة.


METAR-TAF: